createdAt,value
2018-09-03T00:00:47.689Z,0.00
2018-09-03T00:01:47.682Z,0.00
2018-09-03T00:02:47.687Z,0.00
2018-09-03T00:03:47.717Z,0.00
2018-09-03T00:04:47.686Z,0.00
2018-09-03T00:05:47.687Z,0.00
2018-09-03T00:06:47.691Z,0.00
2018-09-03T00:07:47.684Z,0.00
2018-09-03T00:08:47.715Z,0.00
2018-09-03T00:09:47.687Z,0.00
2018-09-03T00:10:47.687Z,0.00
2018-09-03T00:11:47.701Z,0.00
2018-09-03T00:12:48.339Z,0.00
2018-09-03T00:13:47.719Z,0.00
2018-09-03T00:14:47.688Z,0.00
2018-09-03T00:15:47.684Z,0.00
2018-09-03T00:16:47.688Z,0.00
2018-09-03T00:17:47.687Z,0.00
2018-09-03T00:18:47.718Z,0.00
2018-09-03T00:19:47.684Z,0.00
2018-09-03T00:20:47.690Z,0.00
2018-09-03T00:21:47.690Z,0.00
2018-09-03T00:22:47.720Z,0.00
2018-09-03T00:23:47.690Z,0.00
2018-09-03T00:24:47.689Z,0.00
2018-09-03T00:25:47.694Z,0.00
2018-09-03T00:26:47.688Z,0.00
2018-09-03T00:27:47.717Z,0.00
2018-09-03T00:28:47.689Z,0.00
2018-09-03T00:29:47.691Z,0.00
2018-09-03T00:30:47.689Z,0.00
2018-09-03T00:31:47.685Z,0.00
2018-09-03T00:32:47.714Z,0.00
2018-09-03T00:33:47.690Z,0.00
2018-09-03T00:34:47.690Z,0.00
2018-09-03T00:35:47.687Z,0.00
2018-09-03T00:36:47.715Z,0.00
2018-09-03T00:37:47.691Z,0.00
2018-09-03T00:38:47.690Z,0.00
2018-09-03T00:39:47.691Z,0.00
2018-09-03T00:40:47.688Z,0.00
2018-09-03T00:41:47.715Z,0.00
2018-09-03T00:42:47.692Z,0.00
2018-09-03T00:43:47.687Z,0.00
2018-09-03T00:44:47.692Z,0.00
2018-09-03T00:45:47.690Z,0.00
2018-09-03T00:46:47.719Z,0.00
2018-09-03T00:47:47.690Z,0.00
2018-09-03T00:48:47.692Z,0.00
2018-09-03T00:49:47.692Z,0.00
2018-09-03T00:50:47.692Z,0.00
2018-09-03T00:51:47.722Z,0.00
2018-09-03T00:52:47.693Z,0.00
2018-09-03T00:53:47.694Z,0.00
2018-09-03T00:54:47.691Z,0.00
2018-09-03T00:55:47.689Z,0.00
2018-09-03T00:56:47.720Z,0.00
2018-09-03T00:57:47.689Z,0.00
2018-09-03T00:58:47.690Z,0.00
2018-09-03T00:59:47.690Z,0.00
2018-09-03T01:00:47.693Z,0.00
2018-09-03T01:01:47.718Z,0.00
2018-09-03T01:02:47.697Z,0.00
2018-09-03T01:03:47.693Z,0.00
2018-09-03T01:04:47.695Z,0.00
2018-09-03T01:05:47.691Z,0.00
2018-09-03T01:06:47.719Z,0.00
2018-09-03T01:07:47.691Z,0.00
2018-09-03T01:08:47.699Z,0.00
2018-09-03T01:09:47.688Z,0.00
2018-09-03T01:10:47.691Z,0.00
2018-09-03T01:11:47.718Z,0.00
2018-09-03T01:12:47.696Z,0.00
2018-09-03T01:13:47.691Z,0.00
2018-09-03T01:14:47.689Z,0.00
2018-09-03T01:15:47.692Z,0.00
2018-09-03T01:16:47.720Z,0.00
2018-09-03T01:17:47.692Z,0.00
2018-09-03T01:18:47.693Z,0.00
2018-09-03T01:19:47.693Z,0.00
2018-09-03T01:20:47.720Z,0.00
2018-09-03T01:21:47.692Z,0.00
2018-09-03T01:22:47.692Z,0.00
2018-09-03T01:23:47.696Z,0.00
2018-09-03T01:24:47.701Z,0.00
2018-09-03T01:25:47.721Z,0.00
2018-09-03T01:26:47.694Z,0.00
2018-09-03T01:27:47.693Z,0.00
2018-09-03T01:28:47.696Z,0.00
2018-09-03T01:29:47.697Z,0.00
2018-09-03T01:30:47.722Z,0.00
2018-09-03T01:31:47.695Z,0.00
2018-09-03T01:32:47.696Z,0.00
2018-09-03T01:33:47.722Z,0.00
2018-09-03T01:34:47.695Z,0.00
2018-09-03T01:35:47.697Z,0.00
2018-09-03T01:36:47.710Z,0.00
2018-09-03T01:37:47.694Z,0.00
2018-09-03T01:38:47.721Z,0.00
2018-09-03T01:39:47.692Z,0.00
2018-09-03T01:40:47.699Z,0.00
2018-09-03T01:41:47.723Z,0.00
2018-09-03T01:42:47.695Z,0.00
2018-09-03T01:43:47.698Z,0.00
2018-09-03T01:44:47.697Z,0.00
2018-09-03T01:45:47.723Z,0.00
2018-09-03T01:46:47.699Z,0.00
2018-09-03T01:47:47.697Z,0.00
2018-09-03T01:48:48.728Z,0.00
2018-09-03T01:49:47.695Z,0.00
2018-09-03T01:50:47.696Z,0.00
2018-09-03T01:51:47.724Z,0.00
2018-09-03T01:52:47.813Z,0.00
2018-09-03T01:53:47.697Z,0.00
2018-09-03T01:54:47.696Z,0.00
2018-09-03T01:55:47.728Z,0.00
2018-09-03T01:56:47.701Z,0.00
2018-09-03T01:57:47.692Z,0.00
2018-09-03T01:58:47.700Z,0.00
2018-09-03T01:59:47.701Z,0.00
2018-09-03T02:00:47.725Z,0.00
2018-09-03T02:01:47.701Z,0.00
2018-09-03T02:02:47.706Z,0.00
2018-09-03T02:03:47.723Z,0.00
2018-09-03T02:04:47.702Z,0.00
2018-09-03T02:05:47.735Z,0.00
2018-09-03T02:06:47.704Z,0.00
2018-09-03T02:07:47.700Z,0.00
2018-09-03T02:08:47.702Z,0.00
2018-09-03T02:09:47.695Z,0.00
2018-09-03T02:10:47.730Z,0.00
2018-09-03T02:11:47.699Z,0.00
2018-09-03T02:12:47.703Z,0.00
2018-09-03T02:13:47.727Z,0.00
2018-09-03T02:14:47.707Z,0.00
2018-09-03T02:15:47.701Z,0.00
2018-09-03T02:16:47.723Z,0.00
2018-09-03T02:17:47.704Z,0.00
2018-09-03T02:18:47.731Z,0.00
2018-09-03T02:19:47.700Z,0.00
2018-09-03T02:20:47.703Z,0.00
2018-09-03T02:21:47.738Z,0.00
2018-09-03T02:22:47.704Z,0.00
2018-09-03T02:23:47.700Z,0.00
2018-09-03T02:24:47.704Z,0.00
2018-09-03T02:25:47.736Z,0.00
2018-09-03T02:26:47.704Z,0.00
2018-09-03T02:27:47.701Z,0.00
2018-09-03T02:28:47.705Z,0.00
2018-09-03T02:29:47.705Z,0.00
2018-09-03T02:30:47.731Z,0.00
2018-09-03T02:31:47.701Z,0.00
2018-09-03T02:32:47.705Z,0.00
2018-09-03T02:33:47.705Z,0.00
2018-09-03T02:34:47.707Z,0.00
2018-09-03T02:35:47.730Z,0.00
2018-09-03T02:36:47.734Z,0.00
2018-09-03T02:37:47.706Z,0.00
2018-09-03T02:38:47.703Z,0.00
2018-09-03T02:39:47.702Z,0.00
2018-09-03T02:40:47.707Z,0.00
2018-09-03T02:41:47.732Z,0.00
2018-09-03T02:42:47.846Z,0.00
2018-09-03T02:43:47.703Z,0.00
2018-09-03T02:44:47.707Z,0.00
2018-09-03T02:45:47.739Z,0.00
2018-09-03T02:46:47.712Z,0.00
2018-09-03T02:47:47.708Z,0.00
2018-09-03T02:48:47.707Z,0.00
2018-09-03T02:49:47.708Z,0.00
2018-09-03T02:50:47.736Z,0.00
2018-09-03T02:51:47.704Z,0.00
2018-09-03T02:52:47.707Z,0.00
2018-09-03T02:53:47.708Z,0.00
2018-09-03T02:54:47.708Z,0.00
2018-09-03T02:55:47.736Z,0.00
2018-09-03T02:56:47.704Z,0.00
2018-09-03T02:57:47.723Z,0.00
2018-09-03T02:58:47.709Z,0.00
2018-09-03T02:59:47.705Z,0.00
2018-09-03T03:00:47.737Z,0.00
2018-09-03T03:01:47.709Z,0.00
2018-09-03T03:02:47.711Z,0.00
2018-09-03T03:03:47.709Z,0.00
2018-09-03T03:04:47.710Z,0.00
2018-09-03T03:05:47.741Z,0.00
2018-09-03T03:06:47.710Z,0.00
2018-09-03T03:07:47.707Z,0.00
2018-09-03T03:08:47.713Z,0.00
2018-09-03T03:09:47.709Z,0.00
2018-09-03T03:10:47.742Z,0.00
2018-09-03T03:11:47.763Z,0.00
2018-09-03T03:12:47.870Z,0.00
2018-09-03T03:13:47.735Z,0.00
2018-09-03T03:14:47.711Z,0.00
2018-09-03T03:15:47.736Z,0.00
2018-09-03T03:16:47.711Z,0.00
2018-09-03T03:17:47.732Z,0.00
2018-09-03T03:18:47.712Z,0.00
2018-09-03T03:19:47.711Z,0.00
2018-09-03T03:20:47.741Z,0.00
2018-09-03T03:21:47.711Z,0.00
2018-09-03T03:22:47.712Z,0.00
2018-09-03T03:23:47.707Z,0.00
2018-09-03T03:24:47.710Z,0.00
2018-09-03T03:25:47.737Z,0.00
2018-09-03T03:26:47.708Z,0.00
2018-09-03T03:27:47.712Z,0.00
2018-09-03T03:28:47.712Z,0.00
2018-09-03T03:29:47.737Z,0.00
2018-09-03T03:30:47.708Z,0.00
2018-09-03T03:31:47.710Z,0.00
2018-09-03T03:32:47.800Z,0.00
2018-09-03T03:33:47.708Z,0.00
2018-09-03T03:34:47.708Z,0.00
2018-09-03T03:35:47.747Z,0.00
2018-09-03T03:36:47.716Z,0.00
2018-09-03T03:37:47.710Z,0.00
2018-09-03T03:38:47.716Z,0.00
2018-09-03T03:39:47.709Z,0.00
2018-09-03T03:40:47.737Z,0.00
2018-09-03T03:41:51.625Z,0.00
2018-09-03T03:42:47.709Z,0.00
2018-09-03T03:43:47.708Z,0.00
2018-09-03T03:44:47.717Z,0.00
2018-09-03T03:45:47.738Z,0.00
2018-09-03T03:46:47.710Z,0.00
2018-09-03T03:47:48.389Z,0.00
2018-09-03T03:48:47.784Z,0.00
2018-09-03T03:49:47.708Z,0.00
2018-09-03T03:50:47.739Z,0.00
2018-09-03T03:51:47.708Z,0.00
2018-09-03T03:52:47.843Z,0.00
2018-09-03T03:53:47.707Z,0.00
2018-09-03T03:54:47.704Z,0.00
2018-09-03T03:55:47.736Z,0.00
2018-09-03T03:56:47.709Z,0.00
2018-09-03T03:57:47.708Z,0.00
2018-09-03T03:58:47.706Z,0.00
2018-09-03T03:59:47.712Z,0.00
2018-09-03T04:00:47.741Z,0.00
2018-09-03T04:01:47.730Z,0.00
2018-09-03T04:02:47.713Z,4.00
2018-09-03T04:03:47.709Z,4.00
2018-09-03T04:04:47.708Z,0.00
2018-09-03T04:05:47.738Z,4.00
2018-09-03T04:06:47.714Z,4.00
2018-09-03T04:07:47.709Z,4.00
2018-09-03T04:08:47.726Z,4.00
2018-09-03T04:09:47.710Z,8.00
2018-09-03T04:10:47.734Z,8.00
2018-09-03T04:11:47.738Z,12.00
2018-09-03T04:12:47.882Z,12.00
2018-09-03T04:13:47.714Z,16.00
2018-09-03T04:14:47.707Z,16.00
2018-09-03T04:15:47.712Z,20.00
2018-09-03T04:16:47.740Z,20.00
2018-09-03T04:17:47.719Z,28.00
2018-09-03T04:18:47.712Z,32.00
2018-09-03T04:19:47.707Z,32.00
2018-09-03T04:20:47.707Z,36.00
2018-09-03T04:21:47.735Z,44.00
2018-09-03T04:22:47.715Z,52.00
2018-09-03T04:23:47.773Z,60.00
2018-09-03T04:24:47.707Z,72.00
2018-09-03T04:25:47.704Z,84.00
2018-09-03T04:26:47.740Z,100.00
2018-09-03T04:27:47.709Z,112.00
2018-09-03T04:28:47.756Z,136.00
2018-09-03T04:29:47.708Z,148.00
2018-09-03T04:30:47.708Z,152.00
2018-09-03T04:31:47.741Z,164.00
2018-09-03T04:32:47.926Z,188.00
2018-09-03T04:33:47.705Z,204.00
2018-09-03T04:34:47.709Z,232.00
2018-09-03T04:35:47.714Z,256.00
2018-09-03T04:36:47.735Z,276.00
2018-09-03T04:37:47.709Z,300.00
2018-09-03T04:38:47.795Z,320.00
2018-09-03T04:39:47.706Z,348.00
2018-09-03T04:40:47.711Z,396.00
2018-09-03T04:41:47.742Z,440.00
2018-09-03T04:42:47.710Z,468.00
2018-09-03T04:43:47.709Z,500.00
2018-09-03T04:44:47.706Z,532.00
2018-09-03T04:45:47.711Z,576.00
2018-09-03T04:46:47.735Z,620.00
2018-09-03T04:47:47.707Z,684.00
2018-09-03T04:48:47.705Z,768.00
2018-09-03T04:49:47.739Z,820.00
2018-09-03T04:50:47.715Z,872.00
2018-09-03T04:51:47.736Z,936.00
2018-09-03T04:52:47.856Z,1004.00
2018-09-03T04:53:47.712Z,1024.00
2018-09-03T04:54:47.726Z,1000.00
2018-09-03T04:55:47.708Z,964.00
2018-09-03T04:56:47.736Z,896.00
2018-09-03T04:57:47.706Z,816.00
2018-09-03T04:58:47.711Z,752.00
2018-09-03T04:59:47.709Z,752.00
2018-09-03T05:00:47.706Z,800.00
2018-09-03T05:01:47.743Z,880.00
2018-09-03T05:02:47.711Z,948.00
2018-09-03T05:03:48.383Z,924.00
2018-09-03T05:04:47.705Z,868.00
2018-09-03T05:05:47.777Z,844.00
2018-09-03T05:06:47.738Z,876.00
2018-09-03T05:07:47.710Z,992.00
2018-09-03T05:08:47.706Z,1240.00
2018-09-03T05:09:49.767Z,1492.00
2018-09-03T05:10:51.266Z,1512.00
2018-09-03T05:11:48.646Z,1344.00
2018-09-03T05:12:54.620Z,1124.00
2018-09-03T05:13:47.792Z,896.00
2018-09-03T05:14:47.713Z,716.00
2018-09-03T05:15:47.743Z,656.00
2018-09-03T05:16:53.750Z,632.00
2018-09-03T05:17:50.392Z,608.00
2018-09-03T05:18:50.288Z,596.00
2018-09-03T05:19:48.098Z,592.00
2018-09-03T05:20:50.363Z,600.00
2018-09-03T05:21:49.246Z,608.00
2018-09-03T05:22:48.110Z,648.00
2018-09-03T05:23:47.712Z,716.00
2018-09-03T05:24:47.788Z,800.00
2018-09-03T05:25:47.736Z,864.00
2018-09-03T05:26:47.740Z,884.00
2018-09-03T05:27:47.717Z,832.00
2018-09-03T05:28:47.710Z,812.00
2018-09-03T05:29:47.721Z,868.00
2018-09-03T05:30:48.383Z,896.00
2018-09-03T05:31:47.748Z,896.00
2018-09-03T05:32:47.715Z,912.00
2018-09-03T05:33:47.715Z,952.00
2018-09-03T05:34:47.719Z,924.00
2018-09-03T05:35:47.811Z,852.00
2018-09-03T05:36:47.711Z,772.00
2018-09-03T05:37:47.720Z,740.00
2018-09-03T05:38:47.719Z,684.00
2018-09-03T05:39:47.867Z,584.00
2018-09-03T05:40:47.749Z,512.00
2018-09-03T05:41:47.716Z,460.00
2018-09-03T05:42:47.718Z,420.00
2018-09-03T05:43:47.774Z,428.00
2018-09-03T05:44:47.716Z,456.00
2018-09-03T05:45:47.740Z,532.00
2018-09-03T05:46:47.718Z,632.00
2018-09-03T05:47:47.724Z,692.00
2018-09-03T05:48:47.724Z,748.00
2018-09-03T05:49:47.724Z,888.00
2018-09-03T05:50:47.836Z,1108.00
2018-09-03T05:51:47.921Z,1332.00
2018-09-03T05:52:47.723Z,1500.00
2018-09-03T05:53:47.719Z,1604.00
2018-09-03T05:54:47.723Z,1648.00
2018-09-03T05:55:47.721Z,1644.00
2018-09-03T05:56:47.749Z,1644.00
2018-09-03T05:57:47.721Z,1732.00
2018-09-03T05:58:47.718Z,1916.00
2018-09-03T05:59:47.727Z,2064.00
2018-09-03T06:00:47.727Z,2116.00
2018-09-03T06:01:47.754Z,1988.00
2018-09-03T06:02:47.721Z,1808.00
2018-09-03T06:03:48.021Z,1712.00
2018-09-03T06:04:47.770Z,1632.00
2018-09-03T06:05:50.895Z,1440.00
2018-09-03T06:06:47.722Z,1280.00
2018-09-03T06:07:47.722Z,1200.00
2018-09-03T06:08:47.723Z,1080.00
2018-09-03T06:09:47.721Z,908.00
2018-09-03T06:10:47.846Z,752.00
2018-09-03T06:11:47.727Z,628.00
2018-09-03T06:12:47.734Z,524.00
2018-09-03T06:13:47.728Z,440.00
2018-09-03T06:14:47.729Z,348.00
2018-09-03T06:15:47.756Z,276.00
2018-09-03T06:16:47.728Z,212.00
2018-09-03T06:17:47.764Z,160.00
2018-09-03T06:18:47.725Z,124.00
2018-09-03T06:19:47.728Z,108.00
2018-09-03T06:20:47.756Z,108.00
2018-09-03T06:21:48.265Z,120.00
2018-09-03T06:22:47.726Z,160.00
2018-09-03T06:23:47.729Z,220.00
2018-09-03T06:24:47.729Z,328.00
2018-09-03T06:25:47.756Z,612.00
2018-09-03T06:26:47.837Z,924.00
2018-09-03T06:27:47.730Z,1056.00
2018-09-03T06:28:47.729Z,1040.00
2018-09-03T06:29:47.729Z,904.00
2018-09-03T06:30:47.726Z,844.00
2018-09-03T06:31:47.761Z,1104.00
2018-09-03T06:32:47.791Z,1612.00
2018-09-03T06:33:47.730Z,1988.00
2018-09-03T06:34:47.731Z,2304.00
2018-09-03T06:35:47.741Z,2584.00
2018-09-03T06:36:47.759Z,2820.00
2018-09-03T06:37:47.731Z,3088.00
2018-09-03T06:38:47.737Z,3456.00
2018-09-03T06:39:47.736Z,3776.00
2018-09-03T06:40:47.730Z,3764.00
2018-09-03T06:41:47.759Z,4164.00
2018-09-03T06:42:47.735Z,5980.00
2018-09-03T06:43:47.732Z,9484.00
2018-09-03T06:44:47.731Z,12964.00
2018-09-03T06:45:47.745Z,15168.00
2018-09-03T06:46:47.756Z,15348.00
2018-09-03T06:47:47.732Z,12700.00
2018-09-03T06:48:47.732Z,9172.00
2018-09-03T06:49:47.732Z,7440.00
2018-09-03T06:50:47.736Z,5716.00
2018-09-03T06:51:47.757Z,4124.00
2018-09-03T06:52:47.778Z,3488.00
2018-09-03T06:53:47.733Z,3408.00
2018-09-03T06:54:47.733Z,3084.00
2018-09-03T06:55:47.733Z,2368.00
2018-09-03T06:56:47.765Z,1948.00
2018-09-03T06:57:47.733Z,1976.00
2018-09-03T06:58:47.729Z,2220.00
2018-09-03T06:59:48.274Z,2540.00
2018-09-03T07:00:47.766Z,3056.00
2018-09-03T07:01:47.746Z,3840.00
2018-09-03T07:02:47.759Z,4724.00
2018-09-03T07:03:47.743Z,5320.00
2018-09-03T07:04:48.095Z,5204.00
2018-09-03T07:05:47.737Z,4652.00
2018-09-03T07:06:47.811Z,4304.00
2018-09-03T07:07:47.763Z,4268.00
2018-09-03T07:08:47.734Z,4500.00
2018-09-03T07:09:47.738Z,4828.00
2018-09-03T07:10:47.766Z,5316.00
2018-09-03T07:11:47.739Z,6072.00
2018-09-03T07:12:47.762Z,6484.00
2018-09-03T07:13:47.740Z,6636.00
2018-09-03T07:14:47.738Z,7204.00
2018-09-03T07:15:48.320Z,7952.00
2018-09-03T07:16:47.769Z,8440.00
2018-09-03T07:17:47.740Z,8308.00
2018-09-03T07:18:47.755Z,8272.00
2018-09-03T07:19:47.746Z,8584.00
2018-09-03T07:20:47.772Z,8552.00
2018-09-03T07:21:47.745Z,8444.00
2018-09-03T07:22:47.772Z,8980.00
2018-09-03T07:23:47.740Z,9876.00
2018-09-03T07:24:47.749Z,9548.00
2018-09-03T07:25:47.753Z,9040.00
2018-09-03T07:26:47.782Z,9428.00
2018-09-03T07:27:48.346Z,9904.00
2018-09-03T07:28:48.411Z,9976.00
2018-09-03T07:29:48.345Z,9736.00
2018-09-03T07:30:48.408Z,9336.00
2018-09-03T07:31:49.346Z,9168.00
2018-09-03T07:32:47.749Z,9080.00
2018-09-03T07:33:47.751Z,9060.00
2018-09-03T07:34:47.754Z,9780.00
2018-09-03T07:35:47.782Z,10872.00
2018-09-03T07:36:47.755Z,11944.00
2018-09-03T07:37:47.787Z,12512.00
2018-09-03T07:38:47.757Z,12192.00
2018-09-03T07:39:47.754Z,11736.00
2018-09-03T07:40:47.795Z,12368.00
2018-09-03T07:41:47.757Z,14616.00
2018-09-03T07:42:47.763Z,17108.00
2018-09-03T07:43:47.759Z,18688.00
2018-09-03T07:44:47.763Z,17700.00
2018-09-03T07:45:47.792Z,15312.00
2018-09-03T07:46:47.768Z,12912.00
2018-09-03T07:47:47.783Z,11340.00
2018-09-03T07:48:47.773Z,10716.00
2018-09-03T07:49:47.768Z,11160.00
2018-09-03T07:50:47.796Z,11192.00
2018-09-03T07:51:47.771Z,10660.00
2018-09-03T07:52:47.773Z,10064.00
2018-09-03T07:53:47.780Z,9568.00
2018-09-03T07:54:47.777Z,9756.00
2018-09-03T07:55:47.806Z,10812.00
2018-09-03T07:56:47.780Z,12632.00
2018-09-03T07:57:47.807Z,14856.00
2018-09-03T07:58:47.785Z,16172.00
2018-09-03T07:59:47.781Z,16052.00
2018-09-03T08:00:47.790Z,15584.00
2018-09-03T08:01:47.817Z,16192.00
2018-09-03T08:02:47.790Z,16752.00
2018-09-03T08:03:47.793Z,15864.00
2018-09-03T08:04:47.792Z,14384.00
2018-09-03T08:05:47.795Z,12788.00
2018-09-03T08:06:47.823Z,11444.00
2018-09-03T08:07:47.795Z,10776.00
2018-09-03T08:08:47.803Z,10172.00
2018-09-03T08:09:47.799Z,9080.00
2018-09-03T08:10:47.803Z,7864.00
2018-09-03T08:11:47.825Z,6856.00
2018-09-03T08:12:47.865Z,6228.00
2018-09-03T08:13:47.814Z,5472.00
2018-09-03T08:14:47.808Z,4788.00
2018-09-03T08:15:47.808Z,4496.00
2018-09-03T08:16:47.840Z,4376.00
2018-09-03T08:17:47.816Z,4400.00
2018-09-03T08:18:47.817Z,4256.00
2018-09-03T08:19:47.810Z,4064.00
2018-09-03T08:20:47.816Z,4176.00
2018-09-03T08:21:47.849Z,4272.00
2018-09-03T08:22:47.825Z,4644.00
2018-09-03T08:23:47.822Z,5392.00
2018-09-03T08:24:47.829Z,6428.00
2018-09-03T08:25:47.827Z,6696.00
2018-09-03T08:26:47.853Z,6336.00
2018-09-03T08:27:47.827Z,6012.00
2018-09-03T08:28:47.833Z,6040.00
2018-09-03T08:29:47.830Z,5892.00
2018-09-03T08:30:47.835Z,5372.00
2018-09-03T08:31:47.858Z,5116.00
2018-09-03T08:32:47.833Z,4912.00
2018-09-03T08:33:47.842Z,5028.00
2018-09-03T08:34:47.835Z,5596.00
2018-09-03T08:35:47.834Z,6404.00
2018-09-03T08:36:47.879Z,7344.00
2018-09-03T08:37:47.847Z,7740.00
2018-09-03T08:38:47.840Z,7296.00
2018-09-03T08:39:47.883Z,6912.00
2018-09-03T08:40:47.844Z,6572.00
2018-09-03T08:41:47.872Z,6860.00
2018-09-03T08:42:47.847Z,7852.00
2018-09-03T08:43:47.845Z,8372.00
2018-09-03T08:44:47.894Z,8884.00
2018-09-03T08:45:47.867Z,9176.00
2018-09-03T08:46:47.895Z,8752.00
2018-09-03T08:47:47.857Z,7988.00
2018-09-03T08:48:48.289Z,6868.00
2018-09-03T08:49:47.851Z,6352.00
2018-09-03T08:50:47.850Z,5944.00
2018-09-03T08:51:47.853Z,6288.00
2018-09-03T08:52:49.390Z,6356.00
2018-09-03T08:53:47.854Z,6588.00
2018-09-03T08:54:47.850Z,6100.00
2018-09-03T08:55:47.866Z,5736.00
2018-09-03T08:56:47.900Z,5560.00
2018-09-03T08:57:47.858Z,6268.00
2018-09-03T08:58:48.097Z,6264.00
2018-09-03T08:59:48.783Z,6484.00
2018-09-03T09:00:47.876Z,6512.00
2018-09-03T09:01:47.894Z,6736.00
2018-09-03T09:02:47.862Z,6620.00
2018-09-03T09:03:47.862Z,6660.00
2018-09-03T09:04:47.869Z,7080.00
2018-09-03T09:05:47.873Z,6340.00
2018-09-03T09:06:48.098Z,6016.00
2018-09-03T09:07:47.865Z,6108.00
2018-09-03T09:08:47.865Z,5912.00
2018-09-03T09:09:47.873Z,5408.00
2018-09-03T09:10:47.861Z,5000.00
2018-09-03T09:11:51.337Z,4480.00
2018-09-03T09:12:48.128Z,3960.00
2018-09-03T09:13:50.781Z,4424.00
2018-09-03T09:14:48.020Z,5256.00
2018-09-03T09:15:55.369Z,5552.00
2018-09-03T09:16:47.975Z,5336.00
2018-09-03T09:17:49.430Z,5164.00
2018-09-03T09:18:48.842Z,5300.00
2018-09-03T09:19:48.120Z,5920.00
2018-09-03T09:20:48.189Z,6876.00
2018-09-03T09:21:48.068Z,7324.00
2018-09-03T09:22:49.841Z,7440.00
2018-09-03T09:23:51.940Z,7452.00
2018-09-03T09:24:48.008Z,7616.00
2018-09-03T09:25:48.083Z,8364.00
2018-09-03T09:26:47.920Z,8964.00
2018-09-03T09:27:48.064Z,8656.00
2018-09-03T09:28:47.895Z,9052.00
2018-09-03T09:29:48.498Z,9128.00
2018-09-03T09:30:48.045Z,9624.00
2018-09-03T09:31:47.920Z,9996.00
2018-09-03T09:32:48.022Z,10976.00
2018-09-03T09:33:48.023Z,11364.00
2018-09-03T09:34:47.991Z,11680.00
2018-09-03T09:35:47.984Z,11104.00
2018-09-03T09:36:47.942Z,10872.00
2018-09-03T09:37:47.897Z,9828.00
2018-09-03T09:38:47.903Z,9268.00
2018-09-03T09:39:47.896Z,9168.00
2018-09-03T09:40:47.899Z,8984.00
2018-09-03T09:41:47.931Z,8816.00
2018-09-03T09:42:47.914Z,8688.00
2018-09-03T09:43:47.903Z,8064.00
2018-09-03T09:44:47.930Z,7320.00
2018-09-03T09:45:47.908Z,7984.00
2018-09-03T09:46:47.907Z,9024.00
2018-09-03T09:47:47.938Z,9564.00
2018-09-03T09:48:47.902Z,9712.00
2018-09-03T09:49:48.016Z,9692.00
2018-09-03T09:50:47.909Z,10644.00
2018-09-03T09:51:47.911Z,9648.00
2018-09-03T09:52:47.949Z,9500.00
2018-09-03T09:53:47.912Z,9288.00
2018-09-03T09:54:47.929Z,9360.00
2018-09-03T09:55:47.907Z,9848.00
2018-09-03T09:56:47.957Z,11284.00
2018-09-03T09:57:47.916Z,11720.00
2018-09-03T09:58:47.975Z,12436.00
2018-09-03T09:59:47.956Z,12808.00
2018-09-03T10:00:47.925Z,12212.00
2018-09-03T10:01:47.959Z,13260.00
2018-09-03T10:02:47.929Z,14804.00
2018-09-03T10:03:47.925Z,17172.00
2018-09-03T10:04:47.924Z,15976.00
2018-09-03T10:05:47.935Z,17108.00
2018-09-03T10:06:47.961Z,18100.00
2018-09-03T10:07:47.970Z,19072.00
2018-09-03T10:08:48.034Z,20544.00
2018-09-03T10:09:47.965Z,24320.00
2018-09-03T10:10:47.932Z,22976.00
2018-09-03T10:11:47.925Z,21312.00
2018-09-03T10:12:47.965Z,22176.00
2018-09-03T10:13:47.934Z,22336.00
2018-09-03T10:14:47.935Z,23136.00
2018-09-03T10:15:47.942Z,21920.00
2018-09-03T10:16:47.965Z,19776.00
2018-09-03T10:17:47.944Z,20384.00
2018-09-03T10:18:47.939Z,19584.00
2018-09-03T10:19:47.970Z,17940.00
2018-09-03T10:20:48.009Z,17176.00
2018-09-03T10:21:47.937Z,19680.00
2018-09-03T10:22:47.963Z,19008.00
2018-09-03T10:23:47.943Z,20800.00
2018-09-03T10:24:47.946Z,23104.00
2018-09-03T10:25:47.946Z,21344.00
2018-09-03T10:26:47.947Z,20640.00
2018-09-03T10:27:47.976Z,19200.00
2018-09-03T10:28:47.949Z,16988.00
2018-09-03T10:29:47.988Z,15444.00
2018-09-03T10:30:47.959Z,16552.00
2018-09-03T10:31:48.011Z,16520.00
2018-09-03T10:32:47.992Z,15724.00
2018-09-03T10:33:47.957Z,13412.00
2018-09-03T10:34:47.965Z,11600.00
2018-09-03T10:35:47.965Z,11072.00
2018-09-03T10:36:47.971Z,9732.00
2018-09-03T10:37:48.001Z,10100.00
2018-09-03T10:38:47.973Z,10116.00
2018-09-03T10:39:47.973Z,9440.00
2018-09-03T10:40:47.975Z,8588.00
2018-09-03T10:41:47.999Z,8184.00
2018-09-03T10:42:48.007Z,8956.00
2018-09-03T10:43:47.978Z,9140.00
2018-09-03T10:44:47.994Z,8736.00
2018-09-03T10:45:47.986Z,8496.00
2018-09-03T10:46:47.988Z,8068.00
2018-09-03T10:47:48.016Z,8936.00
2018-09-03T10:48:47.987Z,9356.00
2018-09-03T10:49:48.027Z,10192.00
2018-09-03T10:50:47.991Z,10488.00
2018-09-03T10:51:48.023Z,11988.00
2018-09-03T10:52:47.996Z,12012.00
2018-09-03T10:53:47.996Z,14128.00
2018-09-03T10:54:48.024Z,13472.00
2018-09-03T10:55:48.000Z,14796.00
2018-09-03T10:56:48.001Z,14968.00
2018-09-03T10:57:48.031Z,16788.00
2018-09-03T10:58:48.008Z,18060.00
2018-09-03T10:59:48.933Z,18912.00
2018-09-03T11:00:48.005Z,18624.00
2018-09-03T11:01:48.036Z,17296.00
2018-09-03T11:02:48.937Z,18848.00
2018-09-03T11:03:48.014Z,18720.00
2018-09-03T11:04:48.013Z,18464.00
2018-09-03T11:05:48.017Z,18720.00
2018-09-03T11:06:48.046Z,18976.00
2018-09-03T11:07:48.017Z,19104.00
2018-09-03T11:08:48.022Z,17768.00
2018-09-03T11:09:48.022Z,16024.00
2018-09-03T11:10:48.042Z,16912.00
2018-09-03T11:11:48.051Z,17644.00
2018-09-03T11:12:48.032Z,18592.00
2018-09-03T11:13:48.030Z,20480.00
2018-09-03T11:14:48.031Z,20928.00
2018-09-03T11:15:48.037Z,24864.00
2018-09-03T11:16:48.060Z,25344.00
2018-09-03T11:17:48.040Z,27616.00
2018-09-03T11:18:48.043Z,28320.00
2018-09-03T11:19:48.959Z,29728.00
2018-09-03T11:20:48.045Z,30432.00
2018-09-03T11:21:48.075Z,26656.00
2018-09-03T11:22:48.048Z,25536.00
2018-09-03T11:23:48.052Z,27712.00
2018-09-03T11:24:48.082Z,24960.00
2018-09-03T11:25:50.114Z,21792.00
2018-09-03T11:26:48.092Z,22624.00
2018-09-03T11:27:48.061Z,23744.00
2018-09-03T11:28:48.082Z,24768.00
2018-09-03T11:29:48.069Z,26016.00
2018-09-03T11:30:48.097Z,26880.00
2018-09-03T11:31:48.080Z,22016.00
2018-09-03T11:32:48.073Z,20864.00
2018-09-03T11:33:48.077Z,21632.00
2018-09-03T11:34:48.081Z,19936.00
2018-09-03T11:35:48.106Z,15288.00
2018-09-03T11:36:48.086Z,13372.00
2018-09-03T11:37:48.095Z,12556.00
2018-09-03T11:38:48.090Z,13032.00
2018-09-03T11:39:48.095Z,13596.00
2018-09-03T11:40:48.152Z,12768.00
2018-09-03T11:41:48.106Z,12444.00
2018-09-03T11:42:48.099Z,16616.00
2018-09-03T11:43:48.104Z,19392.00
2018-09-03T11:44:48.116Z,18848.00
2018-09-03T11:45:48.125Z,20064.00
2018-09-03T11:46:48.116Z,20256.00
2018-09-03T11:47:48.114Z,19872.00
2018-09-03T11:48:48.116Z,20992.00
2018-09-03T11:49:48.120Z,25760.00
2018-09-03T11:50:48.150Z,27616.00
2018-09-03T11:51:48.125Z,27296.00
2018-09-03T11:52:48.130Z,25760.00
2018-09-03T11:53:48.133Z,24672.00
2018-09-03T11:54:48.165Z,24672.00
2018-09-03T11:55:48.141Z,25088.00
2018-09-03T11:56:48.219Z,25056.00
2018-09-03T11:57:48.156Z,24032.00
2018-09-03T11:58:48.146Z,22688.00
2018-09-03T11:59:48.174Z,20832.00
2018-09-03T12:00:48.154Z,18944.00
2018-09-03T12:01:48.151Z,17124.00
2018-09-03T12:02:48.160Z,16496.00
2018-09-03T12:03:48.163Z,16212.00
2018-09-03T12:04:53.615Z,16616.00
2018-09-03T12:05:48.167Z,17068.00
2018-09-03T12:06:48.182Z,16732.00
2018-09-03T12:07:48.175Z,15940.00
2018-09-03T12:08:48.179Z,15000.00
2018-09-03T12:09:48.213Z,14408.00
2018-09-03T12:10:48.184Z,13556.00
2018-09-03T12:11:48.191Z,12336.00
2018-09-03T12:12:48.184Z,11160.00
2018-09-03T12:13:48.220Z,10216.00
2018-09-03T12:14:48.195Z,9380.00
2018-09-03T12:15:48.200Z,8680.00
2018-09-03T12:16:48.201Z,7996.00
2018-09-03T12:17:48.205Z,7412.00
2018-09-03T12:18:48.232Z,7264.00
2018-09-03T12:19:48.214Z,7224.00
2018-09-03T12:20:48.217Z,7180.00
2018-09-03T12:21:48.214Z,7020.00
2018-09-03T12:22:48.215Z,6840.00
2018-09-03T12:23:48.245Z,6820.00
2018-09-03T12:24:48.222Z,6932.00
2018-09-03T12:25:48.228Z,7116.00
2018-09-03T12:26:48.226Z,7344.00
2018-09-03T12:27:48.234Z,7408.00